Time;durP1;ratioP1;P1;durP2;ratioP2;P2;SDS_P1;SDS_P2;PMS_P1;PMS_P2;Temp;Humidity;BMP_temperature;BMP_pressure;BME280_temperature;BME280_humidity;BME280_pressure;Samples;Min_cycle;Max_cycle;Signal;HPM_P1;HPM_P2
2021/11/18 00:01:13;;;;;;;13.07;8.90;;;;;;;8.84;66.21;97708.09;5084434;28;20922;-67
2021/11/18 00:03:39;;;;;;;11.13;8.80;;;;;;;8.93;65.95;97701.28;5087105;28;20439;-66
2021/11/18 00:06:04;;;;;;;9.50;7.90;;;;;;;8.93;66.33;97706.50;5090095;28;20854;-68
2021/11/18 00:08:30;;;;;;;11.93;9.33;;;;;;;8.96;66.45;97701.84;5075062;28;20578;-65
2021/11/18 00:10:58;;;;;;;10.37;8.77;;;;;;;9.01;66.37;97704.91;5094846;28;20659;-65
2021/11/18 00:13:29;;;;;;;11.10;7.97;;;;;;;9.00;66.62;97697.19;5094337;28;20934;-65
2021/11/18 00:15:57;;;;;;;10.53;8.60;;;;;;;9.06;66.06;97707.97;5089202;28;20420;-67
2021/11/18 00:18:24;;;;;;;11.50;8.50;;;;;;;9.04;66.31;97703.81;5094172;28;20408;-67
2021/11/18 00:20:56;;;;;;;12.40;8.27;;;;;;;8.89;66.80;97706.75;5094336;28;20432;-67
2021/11/18 00:23:24;;;;;;;10.77;8.67;;;;;;;9.04;66.64;97699.41;5086303;28;20419;-67
2021/11/18 00:25:49;;;;;;;11.30;8.50;;;;;;;9.16;65.89;97699.31;5093918;28;20455;-69
2021/11/18 00:28:15;;;;;;;9.13;7.93;;;;;;;9.19;65.56;97688.63;5085713;28;20805;-66
2021/11/18 00:30:41;;;;;;;10.30;8.40;;;;;;;9.06;66.10;97707.13;5093484;28;20165;-67
2021/11/18 00:33:07;;;;;;;10.83;8.00;;;;;;;9.19;66.06;97696.47;5094973;28;20186;-67
2021/11/18 00:35:34;;;;;;;10.97;9.00;;;;;;;9.29;65.47;97696.47;5094792;28;20380;-66
2021/11/18 00:38:00;;;;;;;9.30;7.70;;;;;;;9.30;65.48;97693.75;5078913;28;20888;-67
2021/11/18 00:40:34;;;;;;;9.33;7.80;;;;;;;9.38;65.41;97706.16;5092894;28;20477;-67
2021/11/18 00:43:00;;;;;;;10.57;8.00;;;;;;;8.90;66.86;97700.56;5074752;28;20429;-67
2021/11/18 00:45:26;;;;;;;8.33;7.17;;;;;;;9.16;65.84;97696.72;5093523;28;20444;-68
2021/11/18 00:47:53;;;;;;;9.27;7.77;;;;;;;9.25;65.63;97700.34;5085293;28;20462;-66
2021/11/18 00:50:22;;;;;;;10.63;8.13;;;;;;;9.24;65.77;97699.50;5099105;28;20219;-68
2021/11/18 00:52:48;;;;;;;8.87;7.17;;;;;;;9.20;65.67;97698.09;5096002;28;20451;-65
2021/11/18 00:55:14;;;;;;;13.67;7.60;;;;;;;9.33;65.56;97703.91;5077664;28;20463;-68
2021/11/18 00:57:40;;;;;;;11.43;8.03;;;;;;;9.31;65.63;97700.63;5094646;28;20197;-64
2021/11/18 01:00:11;;;;;;;9.60;8.00;;;;;;;9.33;65.38;97703.09;5093613;28;20423;-66
2021/11/18 01:02:37;;;;;;;10.27;8.20;;;;;;;9.43;65.49;97703.97;5095265;28;20721;-65
2021/11/18 01:05:03;;;;;;;10.63;8.30;;;;;;;9.43;65.59;97698.72;5091429;28;20490;-66
2021/11/18 01:07:29;;;;;;;11.20;7.97;;;;;;;9.42;65.15;97696.25;5069094;28;20288;-65
2021/11/18 01:09:54;;;;;;;8.77;7.90;;;;;;;9.32;65.47;97701.44;5086950;28;20473;-67
2021/11/18 01:12:20;;;;;;;9.23;7.97;;;;;;;9.40;65.42;97709.47;5091916;28;20652;-66
2021/11/18 01:14:46;;;;;;;11.53;8.10;;;;;;;9.27;64.90;97704.47;5085923;28;20206;-70
2021/11/18 01:17:11;;;;;;;10.17;7.90;;;;;;;9.42;64.68;97704.94;5084211;28;20688;-67
2021/11/18 01:19:38;;;;;;;9.60;7.53;;;;;;;9.43;64.74;97711.00;5093694;28;20182;-67
2021/11/18 01:22:06;;;;;;;8.60;6.50;;;;;;;9.06;65.55;97715.81;5085861;28;20183;-67
2021/11/18 01:24:33;;;;;;;7.93;6.90;;;;;;;9.20;65.40;97706.78;5092772;28;20848;-67
2021/11/18 01:26:59;;;;;;;7.70;6.90;;;;;;;9.35;65.86;97698.56;5092408;28;20524;-68
2021/11/18 01:29:25;;;;;;;9.00;7.40;;;;;;;9.37;64.93;97699.28;5083607;28;20416;-68
2021/11/18 01:31:52;;;;;;;8.47;7.10;;;;;;;9.31;65.49;97711.09;5091860;28;20192;-68
2021/11/18 01:34:18;;;;;;;11.07;7.33;;;;;;;9.18;65.38;97706.06;5092645;28;20444;-66
2021/11/18 01:36:44;;;;;;;9.40;7.03;;;;;;;9.12;65.75;97704.00;5092683;28;20997;-68
2021/11/18 01:39:10;;;;;;;11.30;7.57;;;;;;;9.29;65.27;97718.25;5078532;28;20411;-67
2021/11/18 01:41:37;;;;;;;8.53;7.10;;;;;;;9.30;65.56;97719.06;5091792;28;20177;-68
2021/11/18 01:44:14;;;;;;;13.57;7.30;;;;;;;9.31;65.65;97716.34;5092961;28;20285;-67
2021/11/18 01:46:40;;;;;;;10.20;7.00;;;;;;;9.28;65.71;97713.97;5092011;28;20415;-68
2021/11/18 01:49:08;;;;;;;7.97;6.63;;;;;;;9.30;65.25;97721.69;5091941;28;20748;-65
2021/11/18 01:51:43;;;;;;;10.97;7.20;;;;;;;9.32;65.25;97718.00;5076926;28;20413;-66
2021/11/18 01:54:10;;;;;;;12.23;6.90;;;;;;;9.26;66.15;97728.97;5091268;28;20876;-66
2021/11/18 01:56:35;;;;;;;8.00;7.20;;;;;;;8.98;66.53;97720.84;5092263;28;20420;-66
2021/11/18 01:59:22;;;;;;;8.97;7.40;;;;;;;9.15;65.88;97724.63;5091775;28;20583;-66
2021/11/18 02:01:51;;;;;;;9.80;7.33;;;;;;;8.88;66.86;97722.56;5090620;28;20192;-66
2021/11/18 02:04:20;;;;;;;7.63;6.70;;;;;;;8.62;67.54;97720.34;5083740;28;20466;-68
2021/11/18 02:07:07;;;;;;;7.33;6.10;;;;;;;8.50;68.13;97721.38;5090857;28;20420;-66
2021/11/18 02:09:38;;;;;;;8.90;7.20;;;;;;;8.41;68.07;97718.53;5079640;28;20923;-68
2021/11/18 02:12:26;;;;;;;8.07;7.17;;;;;;;8.74;67.54;97719.34;5091817;28;20769;-66
2021/11/18 02:14:53;;;;;;;8.83;7.00;;;;;;;8.57;68.29;97720.75;5086567;28;20514;-66
2021/11/18 02:17:22;;;;;;;8.70;6.80;;;;;;;8.62;67.44;97724.75;5080324;28;21019;-66
2021/11/18 02:19:55;;;;;;;8.87;7.10;;;;;;;8.73;67.54;97722.91;5092121;28;20438;-67
2021/11/18 02:22:23;;;;;;;10.83;7.10;;;;;;;8.97;67.11;97723.59;5086141;28;20432;-69
2021/11/18 02:24:53;;;;;;;7.67;6.63;;;;;;;9.12;66.35;97726.69;5092317;28;20471;-67
2021/11/18 02:27:22;;;;;;;7.87;6.20;;;;;;;9.13;65.96;97723.97;5091419;28;20459;-63
2021/11/18 02:29:50;;;;;;;7.60;6.60;;;;;;;8.94;66.10;97718.63;5084955;28;20928;-66
2021/11/18 02:32:30;;;;;;;9.00;7.20;;;;;;;9.26;65.86;97726.34;5091864;28;20427;-70
2021/11/18 02:35:09;;;;;;;11.00;7.67;;;;;;;9.16;65.77;97728.09;5091504;28;20439;-67
2021/11/18 02:37:34;;;;;;;10.10;6.30;;;;;;;9.04;66.58;97736.03;5081738;28;20410;-68
2021/11/18 02:40:00;;;;;;;8.10;7.13;;;;;;;9.13;66.48;97741.44;5087750;28;20481;-66
2021/11/18 02:42:26;;;;;;;9.27;7.17;;;;;;;9.20;66.05;97755.63;5090641;28;20182;-67
2021/11/18 02:44:52;;;;;;;9.67;7.13;;;;;;;8.93;67.10;97753.56;5090658;28;20201;-67
2021/11/18 02:47:18;;;;;;;8.77;6.93;;;;;;;8.98;66.39;97754.84;5090651;28;20983;-65
2021/11/18 02:49:47;;;;;;;9.87;7.57;;;;;;;9.24;66.02;97754.41;5091398;28;20455;-67
2021/11/18 02:52:16;;;;;;;17.47;7.43;;;;;;;9.33;65.97;97760.66;5076417;28;20504;-67
2021/11/18 02:54:42;;;;;;;9.17;7.60;;;;;;;9.27;66.10;97759.41;5074036;28;20526;-66
2021/11/18 03:00:09;;;;;;;10.10;8.03;;;;;;;9.23;66.46;97747.53;5810843;22;20482;-67
2021/11/18 03:02:35;;;;;;;12.63;7.93;;;;;;;9.27;66.36;97751.53;4985540;28;20506;-67
2021/11/18 03:05:00;;;;;;;8.93;7.80;;;;;;;9.41;65.69;97752.16;5010330;28;20953;-66
2021/11/18 03:07:26;;;;;;;9.40;7.93;;;;;;;9.40;66.04;97755.72;5009750;28;20243;-68
2021/11/18 03:09:51;;;;;;;9.13;7.30;;;;;;;9.21;66.06;97762.50;5005816;28;20209;-66
2021/11/18 03:12:17;;;;;;;10.60;8.43;;;;;;;9.15;66.36;97760.44;4992160;28;20190;-66
2021/11/18 03:14:43;;;;;;;14.70;7.80;;;;;;;9.25;66.71;97768.34;4990443;28;20193;-67
2021/11/18 03:17:08;;;;;;;9.90;7.50;;;;;;;9.14;66.32;97766.63;4995240;28;20189;-67
2021/11/18 03:19:34;;;;;;;11.73;8.40;;;;;;;9.19;66.60;97759.22;4978285;28;20213;-66
2021/11/18 03:22:00;;;;;;;11.43;8.73;;;;;;;9.34;66.39;97762.31;4997715;28;20185;-67
2021/11/18 03:24:26;;;;;;;14.70;10.10;;;;;;;9.44;66.02;97757.13;4994376;28;20669;-67
2021/11/18 03:26:51;;;;;;;16.30;8.77;;;;;;;9.51;65.83;97758.25;4994163;28;20428;-66
2021/11/18 03:29:17;;;;;;;12.90;9.00;;;;;;;9.56;65.67;97756.09;4994842;28;20201;-67
2021/11/18 03:31:42;;;;;;;10.13;8.10;;;;;;;9.60;65.48;97760.06;4979691;28;20175;-66
2021/11/18 03:34:12;;;;;;;11.93;8.80;;;;;;;9.62;65.52;97752.09;4995037;28;20623;-67
2021/11/18 03:36:37;;;;;;;12.83;8.93;;;;;;;9.03;67.36;97759.66;4994957;28;20506;-67
2021/11/18 03:39:08;;;;;;;9.83;8.63;;;;;;;9.40;66.84;97766.19;4977562;28;20531;-67
2021/11/18 03:41:37;;;;;;;10.40;8.20;;;;;;;9.54;66.32;97760.63;4994697;28;20558;-67
2021/11/18 03:44:04;;;;;;;10.80;9.07;;;;;;;9.60;66.02;97775.78;4993251;28;20435;-67
2021/11/18 03:46:37;;;;;;;14.53;10.10;;;;;;;9.57;65.57;97768.22;4976520;28;20455;-67
2021/11/18 03:49:03;;;;;;;12.07;8.90;;;;;;;9.27;66.77;97763.78;4995117;28;20804;-67
2021/11/18 03:51:32;;;;;;;11.13;8.37;;;;;;;9.12;67.02;97760.69;5008161;28;20444;-68
2021/11/18 03:53:58;;;;;;;9.30;8.27;;;;;;;9.33;66.03;97758.84;4985314;28;20433;-67
2021/11/18 03:56:26;;;;;;;11.20;8.57;;;;;;;9.46;65.70;97757.81;4977080;28;20472;-67
2021/11/18 03:58:52;;;;;;;10.47;8.77;;;;;;;9.58;66.32;97761.97;4994387;28;21049;-67
2021/11/18 04:01:18;;;;;;;12.10;8.90;;;;;;;9.66;65.69;97772.63;4998002;28;20440;-68
2021/11/18 04:03:44;;;;;;;12.53;9.17;;;;;;;9.75;65.44;97775.41;4997213;28;20296;-68
2021/11/18 04:06:10;;;;;;;11.83;8.97;;;;;;;9.63;65.64;97775.50;5000404;28;20475;-67
2021/11/18 04:08:35;;;;;;;11.80;9.30;;;;;;;9.76;65.41;97783.16;5009413;28;20209;-67
2021/11/18 04:11:02;;;;;;;10.50;8.73;;;;;;;9.82;65.01;97776.56;4994099;28;20330;-67
2021/11/18 04:13:28;;;;;;;13.67;9.30;;;;;;;9.86;65.19;97783.16;4994505;28;20189;-67
2021/11/18 04:15:54;;;;;;;11.77;9.03;;;;;;;9.86;64.98;97783.16;4977169;28;20443;-68
2021/11/18 04:18:20;;;;;;;10.07;8.03;;;;;;;9.84;65.13;97790.31;4985700;28;20552;-68
2021/11/18 04:20:48;;;;;;;9.50;7.60;;;;;;;9.83;64.65;97799.13;5008844;28;20198;-68
2021/11/18 04:23:20;;;;;;;9.20;7.57;;;;;;;9.81;65.63;97798.47;4995078;28;20420;-66
2021/11/18 04:25:46;;;;;;;10.90;8.13;;;;;;;9.91;64.98;97785.38;4977208;28;20440;-68
2021/11/18 04:28:12;;;;;;;10.90;7.90;;;;;;;9.94;64.69;97785.97;4994261;28;20518;-68
2021/11/18 04:30:44;;;;;;;10.30;7.17;;;;;;;9.92;64.82;97787.88;4993937;28;20263;-68
2021/11/18 04:33:10;;;;;;;11.23;8.00;;;;;;;9.99;64.59;97788.97;4994045;28;20432;-67
2021/11/18 04:35:36;;;;;;;8.70;6.53;;;;;;;9.98;64.44;97791.75;4992119;28;20619;-67
2021/11/18 04:38:02;;;;;;;8.67;6.93;;;;;;;10.01;64.34;97796.72;4994030;28;20424;-67
2021/11/18 04:40:31;;;;;;;13.00;8.33;;;;;;;10.02;63.78;97808.00;4993128;28;20208;-66
2021/11/18 04:42:56;;;;;;;10.40;7.60;;;;;;;9.90;64.21;97800.25;4993998;28;20186;-69
2021/11/18 04:45:22;;;;;;;11.23;7.07;;;;;;;10.04;64.39;97808.72;4993740;28;20494;-68
2021/11/18 04:47:48;;;;;;;9.27;7.23;;;;;;;9.98;64.32;97812.69;4997027;28;20231;-67
2021/11/18 04:50:15;;;;;;;13.07;7.53;;;;;;;10.00;64.06;97818.63;4997195;28;20459;-65
2021/11/18 04:52:41;;;;;;;11.87;7.47;;;;;;;9.92;64.08;97824.53;4986039;28;20186;-67
2021/11/18 04:55:08;;;;;;;9.00;7.20;;;;;;;9.75;64.96;97826.00;4993573;28;20441;-67
2021/11/18 04:57:35;;;;;;;16.57;8.00;;;;;;;9.70;64.50;97825.53;4990660;28;20428;-67
2021/11/18 05:00:00;;;;;;;9.40;7.40;;;;;;;9.83;64.45;97826.16;4991064;28;20460;-68
2021/11/18 05:02:26;;;;;;;9.07;7.03;;;;;;;9.77;64.09;97818.00;4993364;28;20922;-66
2021/11/18 05:04:52;;;;;;;7.00;6.20;;;;;;;9.78;64.26;97814.41;4996088;28;20556;-66
2021/11/18 05:07:18;;;;;;;8.93;7.20;;;;;;;9.80;64.36;97820.34;4993315;28;20208;-67
2021/11/18 05:09:45;;;;;;;9.80;6.80;;;;;;;9.83;63.83;97822.69;4976013;28;20549;-67
2021/11/18 05:12:11;;;;;;;9.97;7.93;;;;;;;9.76;64.51;97825.03;4993384;28;20541;-67
2021/11/18 05:14:37;;;;;;;8.50;6.43;;;;;;;9.78;64.44;97824.88;4992544;28;20848;-68
2021/11/18 05:17:02;;;;;;;9.37;7.27;;;;;;;9.73;64.43;97817.44;5016888;28;20457;-69
2021/11/18 05:19:28;;;;;;;9.77;8.10;;;;;;;9.64;65.00;97815.63;4983810;28;20554;-68
2021/11/18 05:21:54;;;;;;;10.57;7.57;;;;;;;9.71;64.40;97828.97;4995488;28;20841;-69
2021/11/18 05:24:19;;;;;;;14.03;8.50;;;;;;;9.60;65.08;97830.72;4992910;28;20189;-68
2021/11/18 05:26:45;;;;;;;12.83;8.07;;;;;;;9.65;64.75;97831.19;4993394;28;20185;-68
2021/11/18 05:29:11;;;;;;;14.00;8.63;;;;;;;9.85;64.21;97839.09;4995555;28;20209;-66
2021/11/18 05:31:37;;;;;;;8.93;6.97;;;;;;;9.85;63.91;97839.09;4975751;28;20439;-68
2021/11/18 05:34:02;;;;;;;9.83;7.40;;;;;;;9.87;63.97;97847.66;4976915;28;20291;-68
2021/11/18 05:36:28;;;;;;;6.70;6.00;;;;;;;9.95;64.12;97847.84;5001251;28;20188;-68
2021/11/18 05:38:54;;;;;;;9.53;7.07;;;;;;;9.96;64.10;97852.09;4987577;28;20193;-68
2021/11/18 05:41:21;;;;;;;7.77;6.50;;;;;;;10.00;63.97;97850.06;4993518;28;20196;-68
2021/11/18 05:43:47;;;;;;;8.00;7.07;;;;;;;9.94;63.85;97847.94;4993763;28;20281;-68
2021/11/18 05:46:14;;;;;;;12.27;7.97;;;;;;;9.94;64.17;97850.56;4994345;28;20514;-68
2021/11/18 05:48:40;;;;;;;8.80;7.10;;;;;;;9.95;64.29;97847.84;4993409;28;20550;-68
2021/11/18 05:51:08;;;;;;;10.63;8.20;;;;;;;9.92;64.62;97845.47;5015848;28;20474;-68
2021/11/18 05:53:40;;;;;;;10.47;7.43;;;;;;;9.98;64.66;97844.94;5012336;28;20460;-68
2021/11/18 05:56:10;;;;;;;10.40;7.00;;;;;;;10.05;64.22;97844.41;4997110;28;20540;-69
2021/11/18 05:58:37;;;;;;;13.03;7.50;;;;;;;10.09;64.04;97856.25;4977804;28;20431;-68
2021/11/18 06:01:03;;;;;;;10.43;7.70;;;;;;;10.09;64.17;97861.50;4992919;28;20634;-68
2021/11/18 06:03:29;;;;;;;11.50;7.67;;;;;;;9.88;64.19;97854.56;4974860;28;20448;-68
2021/11/18 06:05:55;;;;;;;9.93;8.20;;;;;;;9.74;64.51;97854.91;4993160;28;20436;-68
2021/11/18 06:08:20;;;;;;;11.27;8.00;;;;;;;9.78;65.19;97864.16;4992228;28;20295;-69
2021/11/18 06:10:46;;;;;;;13.20;8.43;;;;;;;9.92;64.64;97855.94;4990832;28;20226;-69
2021/11/18 06:13:12;;;;;;;11.20;8.13;;;;;;;9.76;64.87;97855.59;4975019;28;20193;-68
2021/11/18 06:15:38;;;;;;;17.40;7.00;;;;;;;9.92;64.52;97855.94;4992632;28;20440;-68
2021/11/18 06:18:04;;;;;;;10.10;7.60;;;;;;;9.98;64.36;97860.66;4997921;28;20238;-68
2021/11/18 06:20:30;;;;;;;11.33;7.63;;;;;;;10.02;64.30;97863.00;4974657;28;20471;-67
2021/11/18 06:22:55;;;;;;;14.53;8.77;;;;;;;10.06;64.33;97870.47;4994639;28;20440;-69
2021/11/18 06:25:25;;;;;;;10.87;7.57;;;;;;;10.08;64.06;97863.31;4992549;28;20196;-69
2021/11/18 06:27:51;;;;;;;10.30;8.20;;;;;;;10.02;64.23;97868.25;4990651;28;20209;-68
2021/11/18 06:30:21;;;;;;;15.67;8.27;;;;;;;10.11;64.50;97854.34;4990217;28;20482;-67
2021/11/18 06:32:47;;;;;;;10.83;8.50;;;;;;;10.17;63.95;97856.44;5011955;28;20452;-67
2021/11/18 06:35:14;;;;;;;13.83;7.80;;;;;;;10.20;64.27;97853.56;5015345;28;20552;-68
2021/11/18 06:37:40;;;;;;;16.00;9.23;;;;;;;10.03;64.61;97857.63;5001970;28;20767;-67
2021/11/18 06:40:07;;;;;;;17.87;9.73;;;;;;;9.98;64.60;97865.88;5014714;28;20451;-67
2021/11/18 06:42:33;;;;;;;26.50;13.07;;;;;;;10.06;64.70;97875.69;4998976;28;20195;-68
2021/11/18 06:44:58;;;;;;;27.37;14.27;;;;;;;9.93;65.23;97875.94;5013387;28;20603;-68
2021/11/18 06:47:24;;;;;;;23.10;12.97;;;;;;;10.05;65.39;97881.91;4995289;28;20298;-68
2021/11/18 06:49:49;;;;;;;22.63;12.37;;;;;;;9.92;65.73;97887.38;4993911;28;20211;-68
2021/11/18 06:52:16;;;;;;;16.60;11.03;;;;;;;10.06;65.27;97890.59;5011496;28;20721;-67
2021/11/18 06:54:42;;;;;;;17.40;11.27;;;;;;;10.10;65.42;97891.97;5009925;28;20193;-68
2021/11/18 06:57:08;;;;;;;26.80;12.93;;;;;;;10.18;65.07;97892.16;5011870;28;20449;-68
2021/11/18 06:59:35;;;;;;;22.50;11.20;;;;;;;10.23;65.04;97894.38;5000346;28;20460;-68
2021/11/18 07:02:01;;;;;;;17.27;10.73;;;;;;;10.28;64.80;97897.41;5005918;28;20446;-69
2021/11/18 07:04:27;;;;;;;18.93;10.40;;;;;;;10.24;65.11;97896.84;5004373;28;20436;-67
2021/11/18 07:06:53;;;;;;;16.70;9.87;;;;;;;10.17;65.10;97895.75;4993713;28;20443;-69
2021/11/18 07:09:22;;;;;;;19.80;10.63;;;;;;;10.18;64.98;97901.78;5012888;28;20458;-68
2021/11/18 07:11:48;;;;;;;17.53;10.93;;;;;;;10.15;64.78;97908.13;4995202;28;20212;-69
2021/11/18 07:14:14;;;;;;;14.87;9.70;;;;;;;10.02;64.86;97918.00;5011704;28;20435;-69
2021/11/18 07:16:40;;;;;;;19.83;10.47;;;;;;;9.99;65.37;97919.91;4978616;28;20639;-69
2021/11/18 07:19:07;;;;;;;21.20;10.33;;;;;;;10.02;65.27;97918.00;4993806;28;20203;-68
2021/11/18 07:21:34;;;;;;;21.70;11.47;;;;;;;9.92;65.57;97925.81;5001284;28;20189;-67
2021/11/18 07:24:02;;;;;;;21.67;10.40;;;;;;;9.87;65.46;97922.78;5010428;28;20485;-68
2021/11/18 07:26:31;;;;;;;20.60;10.90;;;;;;;9.96;65.38;97914.13;5011477;28;20952;-68
2021/11/18 07:28:57;;;;;;;24.57;11.40;;;;;;;9.96;65.51;97919.34;5010779;28;20467;-68
2021/11/18 07:31:23;;;;;;;24.83;12.00;;;;;;;9.84;66.03;97923.84;4990440;28;20442;-67
2021/11/18 07:33:49;;;;;;;24.13;12.00;;;;;;;9.42;67.33;97929.13;5013756;28;20436;-68
2021/11/18 07:36:15;;;;;;;20.70;11.37;;;;;;;9.51;67.24;97938.81;5014645;28;20190;-65
2021/11/18 07:38:41;;;;;;;23.70;11.33;;;;;;;9.73;66.34;97929.16;5010738;28;20200;-68
2021/11/18 07:41:08;;;;;;;27.60;11.47;;;;;;;9.83;66.17;97945.75;5010895;28;20447;-67
2021/11/18 07:43:38;;;;;;;24.17;12.13;;;;;;;8.87;69.48;97949.19;5010833;28;20219;-67
2021/11/18 07:46:05;;;;;;;27.90;12.73;;;;;;;9.25;69.14;97949.63;5010724;28;20462;-70
2021/11/18 07:48:30;;;;;;;31.10;18.37;;;;;;;9.51;67.84;97950.09;5011191;28;20549;-67
2021/11/18 07:50:57;;;;;;;31.23;13.33;;;;;;;9.44;67.83;97961.22;4993362;28;20535;-68
2021/11/18 07:53:24;;;;;;;27.13;13.13;;;;;;;9.22;68.98;97957.72;4993300;28;20686;-67
2021/11/18 07:55:50;;;;;;;27.50;12.70;;;;;;;9.67;67.31;97951.44;4993967;28;20894;-68
2021/11/18 07:58:16;;;;;;;38.57;15.33;;;;;;;9.77;67.29;97948.88;5010520;28;20430;-67
2021/11/18 08:00:43;;;;;;;28.47;14.20;;;;;;;9.82;67.36;97955.41;5011231;28;20287;-69
2021/11/18 08:03:11;;;;;;;28.97;13.57;;;;;;;9.94;66.69;97953.53;4997039;28;21004;-67
2021/11/18 08:05:37;;;;;;;30.00;13.30;;;;;;;10.14;66.42;97958.88;5007216;28;20446;-68
2021/11/18 08:08:03;;;;;;;26.80;13.43;;;;;;;10.26;66.34;97955.19;4994987;28;20468;-68
2021/11/18 08:10:29;;;;;;;28.50;12.97;;;;;;;10.32;66.00;97959.06;4990906;28;20464;-67
2021/11/18 08:12:54;;;;;;;28.03;12.90;;;;;;;10.37;65.43;97959.50;5007920;28;20523;-68
2021/11/18 08:15:21;;;;;;;24.03;11.73;;;;;;;10.41;65.46;97955.69;5013175;28;20180;-67
2021/11/18 08:17:46;;;;;;;28.87;13.83;;;;;;;10.38;65.71;97965.59;5012181;28;20256;-68
2021/11/18 08:20:13;;;;;;;31.53;12.67;;;;;;;10.37;65.22;97958.66;5013837;28;20559;-67
2021/11/18 08:22:40;;;;;;;30.57;14.63;;;;;;;10.25;65.42;97957.97;5001477;28;20181;-67
2021/11/18 08:25:07;;;;;;;32.50;14.57;;;;;;;10.14;66.17;97953.63;5013174;28;20423;-69
2021/11/18 08:27:32;;;;;;;28.00;14.07;;;;;;;10.13;66.46;97958.03;5007154;28;20517;-67
2021/11/18 08:29:59;;;;;;;29.83;14.07;;;;;;;10.21;66.31;97954.75;5007415;28;20455;-68
2021/11/18 08:32:25;;;;;;;30.10;13.70;;;;;;;10.29;65.98;97957.56;5012089;28;20189;-68
2021/11/18 08:34:51;;;;;;;26.67;14.40;;;;;;;10.36;65.69;97962.25;4996472;28;20439;-68
2021/11/18 08:37:18;;;;;;;29.73;13.40;;;;;;;10.27;65.55;97956.03;5012489;28;20474;-68
2021/11/18 08:39:44;;;;;;;34.53;13.40;;;;;;;10.13;65.90;97965.91;5013010;28;20200;-67
2021/11/18 08:42:13;;;;;;;27.93;14.17;;;;;;;10.21;65.84;97962.59;5013478;28;20510;-69
2021/11/18 08:44:39;;;;;;;32.27;14.20;;;;;;;10.46;65.20;97973.63;4979263;28;20933;-68
2021/11/18 08:47:07;;;;;;;29.97;13.93;;;;;;;10.42;65.53;97969.63;4996231;28;20910;-68
2021/11/18 08:49:33;;;;;;;25.13;13.60;;;;;;;9.99;66.73;97971.47;5013144;28;20447;-67
2021/11/18 08:52:06;;;;;;;30.53;13.37;;;;;;;10.51;65.36;97968.81;4974735;28;20901;-68
2021/11/18 08:54:32;;;;;;;36.17;13.63;;;;;;;10.57;65.18;97976.16;5011974;28;20427;-67
2021/11/18 08:56:59;;;;;;;32.30;14.73;;;;;;;10.65;64.72;97972.03;5014332;28;20434;-68
2021/11/18 08:59:25;;;;;;;38.80;13.90;;;;;;;10.88;64.68;97973.47;5020563;28;20205;-66
2021/11/18 09:01:54;;;;;;;31.17;14.90;;;;;;;10.89;64.25;97975.13;5020817;28;20490;-66
2021/11/18 09:04:23;;;;;;;28.27;14.23;;;;;;;10.88;64.41;97983.13;4984932;28;20868;-69
2021/11/18 09:06:50;;;;;;;26.70;13.97;;;;;;;10.99;63.97;97977.78;4985087;28;20435;-67
2021/11/18 09:09:18;;;;;;;30.60;14.47;;;;;;;11.03;63.83;97986.19;4995771;28;20933;-68
2021/11/18 09:11:45;;;;;;;22.83;12.97;;;;;;;11.06;63.29;97985.94;4993448;28;20962;-68
2021/11/18 09:14:14;;;;;;;27.20;14.90;;;;;;;11.10;63.17;97987.28;4994304;28;20762;-69
2021/11/18 09:16:44;;;;;;;23.63;12.90;;;;;;;11.29;63.01;97983.03;4997620;28;20431;-69
2021/11/18 09:19:13;;;;;;;22.47;12.83;;;;;;;11.46;62.60;97998.09;4995206;28;20423;-68
2021/11/18 09:21:40;;;;;;;21.90;12.93;;;;;;;11.53;62.07;97990.47;4994490;28;20938;-68
2021/11/18 09:24:26;;;;;;;23.83;12.57;;;;;;;11.39;62.27;97993.53;5013091;28;20458;-68
2021/11/18 09:26:58;;;;;;;24.37;13.10;;;;;;;11.19;62.27;97999.63;5001102;28;20529;-67
2021/11/18 09:29:26;;;;;;;22.20;12.43;;;;;;;11.33;62.26;97998.38;4994841;28;20542;-67
2021/11/18 09:31:53;;;;;;;18.77;11.70;;;;;;;11.29;62.87;97991.72;5004091;28;20436;-67
2021/11/18 09:34:19;;;;;;;20.33;11.43;;;;;;;11.32;61.89;98011.63;5010612;28;20435;-68
2021/11/18 09:36:44;;;;;;;17.00;10.83;;;;;;;11.42;61.18;98009.84;5012770;28;20454;-68
2021/11/18 09:39:11;;;;;;;23.37;12.00;;;;;;;11.50;61.59;97996.84;5012089;28;20431;-68
2021/11/18 09:42:01;;;;;;;22.37;11.30;;;;;;;11.57;61.37;97991.88;5011370;28;20634;-68
2021/11/18 09:44:30;;;;;;;25.87;12.83;;;;;;;11.31;62.24;97988.97;5012079;28;20436;-68
2021/11/18 09:47:12;;;;;;;26.03;13.60;;;;;;;11.67;61.19;97984.00;5012052;28;20431;-69
2021/11/18 09:49:44;;;;;;;22.93;13.27;;;;;;;11.59;61.39;97997.00;5011066;28;20459;-68
2021/11/18 09:52:24;;;;;;;22.50;12.53;;;;;;;11.42;61.77;97994.09;5011440;28;20436;-69
2021/11/18 09:54:57;;;;;;;28.27;12.60;;;;;;;11.32;62.24;97998.50;4998919;28;20518;-67
2021/11/18 09:57:51;;;;;;;22.50;13.73;;;;;;;11.64;61.44;97989.50;4994756;28;20435;-68
2021/11/18 10:00:21;;;;;;;22.87;11.70;;;;;;;11.59;60.93;97989.13;4971148;28;20468;-67
2021/11/18 10:03:02;;;;;;;19.03;12.37;;;;;;;11.68;61.02;97990.91;4989660;28;20942;-68
2021/11/18 10:05:35;;;;;;;25.53;13.40;;;;;;;11.81;60.73;97988.81;5006442;28;20477;-68
2021/11/18 10:08:07;;;;;;;24.60;14.63;;;;;;;11.69;61.18;97987.31;4997758;28;20557;-68
2021/11/18 10:10:37;;;;;;;29.63;16.10;;;;;;;11.77;61.30;97987.44;5013263;28;21154;-68
2021/11/18 10:13:20;;;;;;;25.17;14.57;;;;;;;11.83;61.32;97986.88;5004985;28;20463;-68
2021/11/18 10:16:00;;;;;;;22.67;13.60;;;;;;;11.94;60.58;97985.88;5000081;28;20434;-68
2021/11/18 10:18:33;;;;;;;26.77;13.40;;;;;;;11.99;60.65;97990.72;5006091;28;20469;-70
2021/11/18 10:21:05;;;;;;;23.57;12.80;;;;;;;11.81;60.73;97994.06;5013225;28;20547;-68
2021/11/18 10:23:30;;;;;;;18.17;11.43;;;;;;;11.97;61.17;97984.78;4993815;28;20424;-69
2021/11/18 10:26:04;;;;;;;23.07;14.17;;;;;;;11.74;61.64;97987.69;5012807;28;20446;-68
2021/11/18 10:28:38;;;;;;;18.73;11.60;;;;;;;12.03;60.54;97994.72;5005322;28;20636;-68
2021/11/18 10:31:25;;;;;;;20.53;11.60;;;;;;;12.03;60.29;97989.47;4989582;28;20816;-70
2021/11/18 10:34:17;;;;;;;20.00;11.03;;;;;;;12.33;59.28;97977.09;5021598;28;20412;-69
2021/11/18 10:36:55;;;;;;;20.50;10.90;;;;;;;11.81;60.08;97980.09;4969828;28;20431;-69
2021/11/18 10:39:32;;;;;;;13.53;9.23;;;;;;;12.14;59.39;97976.16;5011909;28;20439;-67
2021/11/18 10:42:28;;;;;;;18.67;12.10;;;;;;;12.31;59.00;97976.38;5011768;28;20454;-68
2021/11/18 10:45:18;;;;;;;18.77;9.83;;;;;;;12.66;57.78;97969.59;4984774;28;20439;-69
2021/11/18 10:47:55;;;;;;;11.10;7.40;;;;;;;12.90;57.38;97966.41;4998731;28;20521;-68
2021/11/18 10:50:35;;;;;;;12.03;6.77;;;;;;;13.12;56.37;97959.03;5012037;28;20493;-68
2021/11/18 10:53:12;;;;;;;12.50;7.20;;;;;;;13.13;55.42;97959.84;5013587;28;20423;-68
2021/11/18 10:55:41;;;;;;;14.10;7.63;;;;;;;13.12;55.94;97958.19;5005499;28;20872;-68
2021/11/18 10:58:09;;;;;;;17.50;9.63;;;;;;;12.87;56.89;97950.91;5013994;28;20435;-69
2021/11/18 11:00:37;;;;;;;16.23;9.57;;;;;;;12.93;57.22;97944.22;5009534;28;20463;-68
2021/11/18 11:03:19;;;;;;;13.60;7.90;;;;;;;13.02;57.03;97937.25;5012806;28;20526;-68
2021/11/18 11:05:45;;;;;;;8.90;5.63;;;;;;;12.42;57.08;97936.78;5004281;28;20490;-68
2021/11/18 11:08:29;;;;;;;8.60;6.60;;;;;;;12.44;57.73;97937.47;5011285;28;20966;-70
2021/11/18 11:11:17;;;;;;;13.43;8.00;;;;;;;12.70;57.35;97933.28;4999937;28;20212;-69
2021/11/18 11:14:01;;;;;;;14.67;8.53;;;;;;;12.81;57.23;97940.16;4976692;28;20436;-69
2021/11/18 11:16:56;;;;;;;13.00;8.63;;;;;;;12.83;57.74;97946.09;5011776;28;20435;-67
2021/11/18 11:19:31;;;;;;;13.53;8.00;;;;;;;12.99;56.99;97948.06;4993434;28;20458;-68
2021/11/18 11:22:15;;;;;;;13.27;8.63;;;;;;;12.89;57.67;97940.22;5009124;28;20514;-68
2021/11/18 11:24:52;;;;;;;23.27;10.10;;;;;;;13.03;57.71;97944.16;4993590;28;20435;-69
2021/11/18 11:27:33;;;;;;;12.50;7.70;;;;;;;13.13;56.84;97942.28;5009737;28;20442;-67
2021/11/18 11:30:20;;;;;;;11.53;8.17;;;;;;;12.00;60.23;97942.47;5010343;28;20454;-69
2021/11/18 11:32:47;;;;;;;12.53;8.13;;;;;;;12.62;58.37;97935.84;4996121;28;20500;-68
2021/11/18 11:35:31;;;;;;;11.80;8.80;;;;;;;12.87;57.62;97939.53;4997510;28;20913;-68
2021/11/18 11:38:18;;;;;;;10.87;7.70;;;;;;;12.81;57.93;97940.97;4985613;28;20521;-68
2021/11/18 11:41:21;;;;;;;9.77;7.20;;;;;;;12.49;58.27;97947.53;4999694;28;20447;-69